Aviation Digital Data Service (ADDS)

Output produced by METARs form (1836 UTC 19 April 2019)
found at http://www.aviationweather.gov/metar/data/
 
METAR text: AGGM 182100Z 00000KT 9999 HZ FEW018 FEW018CB BKN100 28/24 Q1010
Conditions at: AGGM (MUNDA/NEW GEORGI, SB) observed 2100 UTC 18 April 2019
Temperature: 28.0°C (82°F)
Dewpoint: 24.0°C (75°F) [RH = 79%]
Pressure (altimeter): 29.82 inches Hg (1010.0 mb)
Winds: calm
Visibility: 6 or more miles (10+ km)
Ceiling: 10000 feet AGL
Clouds: few clouds at 1800 feet AGL
few clouds at 1800 feet AGL
broken clouds at 10000 feet AGL
Weather: HZ  (haze)

Forecast for: AGGM (MUNDA/NEW GEORGI, SB)
Text: TAF AGGM 191730Z 1918/2018 16010KT 9999 -SHRA SCT017 BKN100
Forecast period: 1800 UTC 19 April 2019 to 1800 UTC 20 April 2019
Forecast type: FROM: standard forecast or significant change
Winds: from the SSE (160 degrees) at 12 MPH (10 knots; 5.1 m/s)
Visibility: 6 or more miles 10+ km)
Ceiling: 10000 feet AGL
Clouds: scattered clouds at 1700 feet AGL
broken clouds at 10000 feet AGL
Weather: -SHRA  (light rain showers)
Text: PROB40 INTER 1918/2006 5000 TSSH BKN015 FEW016CB Q 1007 1009 1009 1007
Forecast period: 1800 UTC 19 April 2019 to 0600 UTC 20 April 2019
Forecast type: TEMPORARY: The following changes expected for less than half the time period
Visibility: 3 miles (5 km)
Ceiling: 1500 feet AGL
Clouds: broken clouds at 1500 feet AGL
few clouds at 1600 feet AGL
Weather: SH TS  (showers, thunderstorm)